Data for 07/19/2008

Time Sea-Level Adjusted Pressure Absolute Pressure Temperature Relative Humidity Dew Point   
(mb) (inHg) (mb) (inHg) (C) (F) (%) (C) (F)
00:05 1017 30.03 847 25.01 11.7 53.1 77 7.9 46.1
00:10 1017 30.03 847 25.01 11.7 53.1 77 7.8 46
00:15 1017 30.03 847 25.01 11.8 53.2 77 7.9 46.2
00:20 1017 30.03 847 25.01 11.7 53.1 77 7.8 46
00:25 1017 30.03 847 25.01 11.7 53.1 76 7.7 45.9
00:30 1018 30.06 847 25.01 11.8 53.2 75 7.5 45.5
00:35 1018 30.06 847 25.01 11.8 53.2 75 7.5 45.5
00:40 1018 30.06 847 25.01 11.6 53 76 7.5 45.6
00:45 1018 30.06 847 25.01 11.4 52.5 78 7.7 45.8
00:50 1018 30.06 847 25.01 11.2 52.1 78 7.6 45.6
00:55 1018 30.06 847 25.01 11.1 51.9 79 7.5 45.5
01:00 1018 30.06 847 25.01 10.9 51.7 79 7.4 45.3
01:05 1018 30.06 847 25.01 10.9 51.7 79 7.4 45.3
01:10 1018 30.06 847 25.01 10.9 51.6 78 7.3 45.1
01:15 1018 30.06 847 25.01 10.8 51.4 79 7.2 45
01:20 1018 30.06 847 25.01 10.7 51.3 80 7.4 45.3
01:25 1018 30.06 847 25.01 10.7 51.2 78 7 44.6
01:30 1018 30.06 847 25.01 10.9 51.7 75 6.7 44
01:35 1018 30.06 847 25.01 11.2 52.2 73 6.5 43.7
01:40 1018 30.06 847 25.01 11.4 52.5 73 6.7 44.1
01:45 1018 30.06 847 25.01 11.4 52.4 73 6.8 44.3
01:50 1018 30.06 847 25.01 11.3 52.4 73 6.7 44.1
01:55 1018 30.06 847 25.01 11.2 52.1 72 6.4 43.5
02:00 1018 30.06 847 25.01 11.4 52.6 72 6.6 43.9
02:05 1018 30.06 847 25.01 11.3 52.3 71 6.3 43.3
02:10 1018 30.06 847 25.01 11.3 52.3 72 6.5 43.8
02:15 1018 30.06 847 25.01 11.2 52.1 73 6.6 43.9
02:20 1018 30.06 847 25.01 11 51.9 73 6.3 43.4
02:25 1018 30.06 847 25.01 11.3 52.4 70 6 42.8
02:30 1018 30.06 847 25.01 11.3 52.3 73 6.6 43.9
02:35 1018 30.06 847 25.01 10.6 51.1 76 6.6 43.9
02:40 1018 30.06 847 25.01 10.1 50.2 76 6.2 43.1
02:45 1018 30.06 847 25.01 10.1 50.2 77 6.2 43.1
02:50 1018 30.06 847 25.01 10.1 50.2 78 6.4 43.5
02:55 1018 30.06 847 25.01 10.5 50.8 75 6.2 43.2
03:00 1018 30.06 847 25.01 10.4 50.6 76 6.3 43.4
03:05 1018 30.06 847 25.01 10.3 50.5 76 6.3 43.4
03:10 1018 30.06 847 25.01 10.3 50.6 77 6.4 43.5
03:15 1018 30.06 847 25.01 10.4 50.6 73 5.8 42.5
03:20 1018 30.06 847 25.01 10.6 51.1 72 5.9 42.6
03:25 1018 30.06 847 25.01 10.6 51.1 71 5.7 42.2
03:30 1018 30.06 847 25.01 10.7 51.3 73 6 42.8
03:35 1018 30.06 847 25.01 10.6 51.1 73 5.9 42.7
03:40 1018 30.06 847 25.01 10.7 51.2 73 5.9 42.7
03:45 1018 30.06 848 25.04 10.6 51.2 72 5.9 42.5
03:50 1018 30.06 848 25.04 10.7 51.2 73 6 42.8
03:55 1018 30.06 848 25.04 10.5 50.8 74 6 42.9
04:00 1018 30.06 848 25.04 10.1 50.1 76 6.1 43
04:05 1018 30.06 848 25.04 9.7 49.5 76 5.7 42.3
04:10 1018 30.06 848 25.04 9.8 49.7 76 5.8 42.5
04:15 1018 30.06 848 25.04 9.8 49.7 75 5.6 42.1
04:20 1018 30.06 848 25.04 9.9 49.8 77 6.1 43
04:25 1019 30.09 848 25.04 9.9 49.9 76 5.9 42.6
04:30 1019 30.09 848 25.04 9.9 49.8 76 5.9 42.7
04:35 1019 30.09 848 25.04 9.8 49.6 79 6.3 43.3
04:40 1019 30.09 848 25.04 9.4 48.9 81 6.3 43.3
04:45 1019 30.09 848 25.04 9.2 48.6 81 6.2 43.1
04:50 1019 30.09 848 25.04 9.3 48.8 81 6.3 43.3
04:55 1019 30.09 848 25.04 9.2 48.6 81 6.2 43.1
05:00 1019 30.09 848 25.04 9.2 48.6 81 6.1 43
05:05 1019 30.09 848 25.04 9.5 49.1 78 5.9 42.7
05:10 1019 30.09 848 25.04 9.6 49.2 78 5.9 42.7
05:15 1019 30.09 848 25.04 9.9 49.8 75 5.7 42.2
05:20 1019 30.09 848 25.04 10.2 50.4 74 5.8 42.4
05:25 1019 30.09 848 25.04 10.4 50.6 73 5.7 42.2
05:30 1019 30.09 848 25.04 10.7 51.2 70 5.5 41.9
05:35 1019 30.09 848 25.04 10.9 51.5 70 5.7 42.2
05:40 1019 30.09 848 25.04 10.5 50.9 71 5.5 41.9
05:45 1019 30.09 848 25.04 10.4 50.7 70 5.2 41.4
05:50 1019 30.09 848 25.04 10.6 51 70 5.4 41.8
05:55 1019 30.09 848 25.04 10 50.1 77 6.1 43.1
06:00 1019 30.09 848 25.04 9.5 49.2 76 5.6 42.1
06:05 1019 30.09 848 25.04 9.6 49.3 76 5.6 42.1
06:10 1019 30.09 848 25.04 9.4 48.9 75 5.3 41.5
06:15 1019 30.09 848 25.04 9.7 49.4 75 5.4 41.8
06:20 1019 30.09 848 25.04 9.7 49.4 75 5.5 41.9
06:25 1019 30.09 848 25.04 9.6 49.2 76 5.6 42
06:30 1019 30.09 848 25.04 9.6 49.3 75 5.5 41.9
06:35 1019 30.09 848 25.04 9.8 49.6 75 5.5 42
06:40 1019 30.09 848 25.04 9.9 49.8 75 5.7 42.2
06:45 1019 30.09 848 25.04 9.9 49.7 74 5.5 41.9
06:50 1019 30.09 848 25.04 10 50.1 75 5.8 42.4
06:55 1019 30.09 848 25.04 10.2 50.4 74 5.7 42.3
07:00 1019 30.09 848 25.04 10.4 50.6 74 6 42.7
07:05 1019 30.09 848 25.04 10.6 51 72 5.9 42.5
07:10 1019 30.09 849 25.07 10.7 51.2 73 6 42.8
07:15 1019 30.09 849 25.07 10.8 51.4 73 6.2 43.2
07:20 1019 30.09 849 25.07 10.9 51.6 72 6.1 43
07:25 1019 30.09 849 25.07 11.3 52.3 71 6.2 43.2
07:30 1019 30.09 848 25.04 11.3 52.3 71 6.1 43.1
07:35 1019 30.09 848 25.04 11.5 52.7 70 6.2 43.1
07:40 1019 30.09 848 25.04 12.1 53.8 66 5.9 42.7
07:45 1019 30.09 848 25.04 12.6 54.6 66 6.5 43.7
07:50 1019 30.09 848 25.04 13.1 55.5 65 6.7 44
07:55 1019 30.09 848 25.04 13.7 56.6 64 7.1 44.7
08:00 1019 30.09 848 25.04 13.7 56.7 63 7 44.5
08:05 1019 30.09 848 25.04 13.4 56.2 64 6.8 44.3
08:10 1019 30.09 849 25.07 13.6 56.5 63 6.8 44.2
08:15 1019 30.09 849 25.07 13.6 56.4 61 6.4 43.4
08:20 1019 30.09 849 25.07 13.8 56.9 62 6.7 44.1
08:25 1019 30.09 849 25.07 14.5 58 57 6.2 43.2
08:30 1019 30.09 849 25.07 14.5 58.2 56 5.9 42.6
08:35 1019 30.09 849 25.07 14.7 58.4 57 6.2 43.2
08:40 1019 30.09 849 25.07 15.5 60 56 6.8 44.2
08:45 1019 30.09 849 25.07 16.3 61.3 53 6.8 44.3
08:50 1019 30.09 849 25.07 16.5 61.6 42 3.7 38.7
08:55 1019 30.09 849 25.07 16.9 62.4 45 5.1 41.2
09:00 1019 30.09 849 25.07 17.9 64.3 41 4.7 40.4
09:05 1019 30.09 849 25.07 17.9 64.3 40 4.3 39.7
09:10 1019 30.09 849 25.07 17.9 64.2 42 4.8 40.7
09:15 1019 30.09 849 25.07 18.1 64.5 39 4.1 39.3
09:20 1019 30.09 849 25.07 18.3 64.9 40 4.5 40.1
09:25 1019 30.09 849 25.07 17.9 64.2 35 2.4 36.3
09:30 1019 30.09 849 25.07 18.6 65.5 34 2.8 37
09:35 1019 30.09 849 25.07 18.6 65.5 33 2.1 35.8
09:40 1019 30.09 849 25.07 18.3 64.9 38 3.9 39
09:45 1019 30.09 849 25.07 18.9 65.9 32 2.1 35.8
09:50 1019 30.09 849 25.07 19.1 66.3 34 2.9 37.3
09:55 1019 30.09 849 25.07 19.2 66.6 30 1.3 34.4
10:00 1019 30.09 849 25.07 19.7 67.4 31 2.2 36
10:05 1019 30.09 849 25.07 18.9 66.1 33 2.5 36.4
10:10 1019 30.09 849 25.07 19.1 66.3 31 1.6 34.8
10:15 1019 30.09 849 25.07 20.2 68.3 28 1.2 34.1
10:20 1019 30.09 849 25.07 20.1 68.2 31 2.4 36.4
10:25 1019 30.09 849 25.07 20.2 68.4 29 2 35.5
10:30 1019 30.09 849 25.07 20.4 68.7 29 1.9 35.5
10:35 1019 30.09 849 25.07 21.1 70 28 1.9 35.5
10:40 1019 30.09 849 25.07 21.3 70.4 27 2 35.6
10:45 1019 30.09 849 25.07 20.8 69.5 29 2.2 36
10:50 1019 30.09 849 25.07 21.2 70.1 27 1.7 35
10:55 1019 30.09 849 25.07 21.3 70.4 27 1.9 35.4
11:00 1019 30.09 849 25.07 21.5 70.8 26 1.7 35
11:05 1019 30.09 848 25.04 21.9 71.3 27 2.3 36.2
11:10 1019 30.09 848 25.04 21.1 69.9 28 2.1 35.8
11:15 1019 30.09 848 25.04 21.1 70 29 2.4 36.3
11:20 1019 30.09 848 25.04 21.1 69.9 28 2.2 35.9
11:25 1019 30.09 848 25.04 20.8 69.4 27 1.5 34.7
11:30 1019 30.09 848 25.04 21.5 70.8 28 2.3 36.1
11:35 1019 30.09 848 25.04 21.4 70.6 28 2.3 36.2
11:40 1019 30.09 848 25.04 21.9 71.4 25 1.4 34.6
11:45 1019 30.09 848 25.04 22.1 71.8 29 3.4 38
11:50 1019 30.09 848 25.04 21.3 70.3 28 2 35.6
11:55 1019 30.09 848 25.04 21.2 70.1 28 2.3 36.2
12:00 1019 30.09 848 25.04 21.2 70.1 27 1.5 34.7
12:05 1019 30.09 848 25.04 21.6 70.8 28 2.4 36.4
12:10 1019 30.09 848 25.04 22 71.6 27 2.4 36.4
12:15 1019 30.09 848 25.04 22.9 73.2 25 1.9 35.4
12:20 1019 30.09 848 25.04 23.1 73.5 25 2.2 35.9
12:25 1019 30.09 848 25.04 22.8 73.1 27 3.3 38
12:30 1019 30.09 848 25.04 22.7 72.9 26 2.3 36.1
12:35 1019 30.09 848 25.04 22.3 72.2 25 1.8 35.2
12:40 1019 30.09 848 25.04 23.2 73.7 26 2.7 36.9
12:45 1019 30.09 848 25.04 23.2 73.7 26 3 37.4
12:50 1019 30.09 848 25.04 23 73.3 27 3.3 37.9
12:55 1019 30.09 848 25.04 23 73.3 27 3.2 37.7
13:00 1019 30.09 848 25.04 23.3 73.9 24 2 35.5
13:05 1018 30.06 848 25.04 23.5 74.3 25 2.4 36.3
13:10 1018 30.06 848 25.04 23.7 74.7 24 2.1 35.8
13:15 1018 30.06 848 25.04 23.9 74.9 25 2.8 37.1
13:20 1018 30.06 848 25.04 23.8 74.9 24 2.2 35.9
13:25 1018 30.06 848 25.04 23.6 74.5 25 2.7 36.9
13:30 1018 30.06 848 25.04 23.4 74.1 23 1.4 34.5
13:35 1018 30.06 848 25.04 23.7 74.6 25 2.5 36.4
13:40 1018 30.06 848 25.04 24.3 75.8 23 2 35.5
13:45 1018 30.06 847 25.01 24.7 76.4 22 1.8 35.3
13:50 1018 30.06 847 25.01 25 76.9 23 2.8 37.1
13:55 1018 30.06 847 25.01 25.3 77.5 24 3.6 38.4
14:00 1018 30.06 847 25.01 25.6 78.1 22 2.4 36.4
14:05 1018 30.06 847 25.01 25.7 78.2 22 2.7 36.8
14:10 1018 30.06 847 25.01 25.2 77.4 22 2.2 36
14:15 1018 30.06 847 25.01 24.9 76.8 23 2.4 36.3
14:20 1018 30.06 847 25.01 25 77 22 2.3 36.2
14:25 1018 30.06 847 25.01 25.4 77.7 22 2.5 36.6
14:30 1018 30.06 847 25.01 25.6 78.1 21 1.9 35.5
14:35 1018 30.06 847 25.01 25.7 78.3 21 2.2 35.9
14:40 1018 30.06 847 25.01 24.5 76.1 23 2.5 36.5
14:45 1018 30.06 847 25.01 24.9 76.8 22 2.2 36
14:50 1018 30.06 847 25.01 25.4 77.7 22 2.2 36
14:55 1018 30.06 847 25.01 25.6 78 22 2.3 36.2
15:00 1018 30.06 847 25.01 26.4 79.5 19 1.4 34.6
15:05 1018 30.06 847 25.01 26.2 79.1 20 1.8 35.3
15:10 1018 30.06 847 25.01 26.4 79.6 18 0.8 33.4
15:15 1018 30.06 847 25.01 26.8 80.2 19 1.2 34.1
15:20 1018 30.06 847 25.01 26.7 80.1 17 -0.1 31.7
15:25 1017 30.03 847 25.01 26.9 80.3 19 1.5 34.7
15:30 1017 30.03 847 25.01 26.3 79.3 20 1.5 34.7
15:35 1017 30.03 847 25.01 25.1 77.3 20 0.7 33.3
15:40 1017 30.03 847 25.01 25.4 77.7 20 1.4 34.5
15:45 1017 30.03 846 24.98 26.1 79 19 1 33.8
15:50 1017 30.03 846 24.98 26.5 79.7 19 1 33.8
15:55 1017 30.03 846 24.98 26.9 80.3 19 1.4 34.6
16:00 1017 30.03 846 24.98 26.8 80.2 19 1.6 35
16:05 1017 30.03 846 24.98 26.6 79.9 17 0.2 32.4
16:10 1017 30.03 846 24.98 25.9 78.7 19 0.9 33.6
16:15 1017 30.03 846 24.98 25.6 78.2 19 0.3 32.5
16:20 1017 30.03 846 24.98 25.3 77.6 19 0.4 32.8
16:25 1017 30.03 846 24.98 26.5 79.6 15 -1.7 28.9
16:30 1017 30.03 846 24.98 26.2 79.1 17 -0.8 30.5
16:35 1017 30.03 846 24.98 25.6 78 20 0.9 33.7
16:40 1017 30.03 846 24.98 26.3 79.3 17 -0.2 31.6
16:45 1017 30.03 846 24.98 26.6 79.9 18 0.8 33.5
16:50 1017 30.03 846 24.98 26.4 79.6 19 1.1 34
16:55 1017 30.03 846 24.98 26 78.7 19 0.7 33.3
17:00 1017 30.03 846 24.98 25.9 78.7 18 0.4 32.8
17:05 1017 30.03 846 24.98 26.7 80.1 17 -0 31.9
17:10 1017 30.03 846 24.98 26.9 80.4 16 -0.7 30.7
17:15 1017 30.03 846 24.98 26.6 79.8 15 -1.6 29.2
17:20 1017 30.03 846 24.98 27.1 80.7 15 -1.2 29.9
17:25 1017 30.03 846 24.98 26.4 79.4 17 -0.7 30.7
17:30 1017 30.03 846 24.98 26.7 80 14 -2.5 27.5
17:35 1017 30.03 846 24.98 27 80.5 15 -1.2 29.8
17:40 1017 30.03 846 24.98 27.2 81 15 -1.8 28.7
17:45 1017 30.03 846 24.98 26.6 79.8 15 -2.2 28.1
17:50 1017 30.03 846 24.98 27.3 81.1 14 -1.9 28.7
17:55 1017 30.03 846 24.98 27.2 81 14 -2.1 28.2
18:00 1017 30.03 846 24.98 26.4 79.6 15 -2.2 28.1
18:05 1017 30.03 846 24.98 27.4 81.2 15 -1.6 29
18:10 1016 30 846 24.98 27.8 82.1 14 -1.5 29.2
18:15 1016 30 846 24.98 27.6 81.6 14 -2.2 28
18:20 1016 30 846 24.98 27.4 81.2 15 -1.6 29.1
18:25 1016 30 846 24.98 27 80.5 14 -2.1 28.3
18:30 1016 30 846 24.98 26.9 80.4 15 -1.5 29.3
18:35 1016 30 846 24.98 26.5 79.6 14 -2.6 27.3
18:40 1016 30 846 24.98 26.2 79.2 15 -2.1 28.2
18:45 1016 30 846 24.98 26.3 79.3 14 -2.9 26.8
18:50 1016 30 846 24.98 26.8 80.2 13 -3.2 26.3
18:55 1016 30 846 24.98 26.8 80.3 13 -3.2 26.3
19:00 1016 30 846 24.98 27.1 80.8 13 -3.6 25.5
19:05 1016 30 846 24.98 27.2 81 13 -2.9 26.8
19:10 1016 30 846 24.98 26.8 80.2 14 -3.1 26.4
19:15 1016 30 846 24.98 26.6 79.8 14 -2.5 27.5
19:20 1016 30 846 24.98 26.4 79.6 14 -3.1 26.4
19:25 1016 30 846 24.98 25.8 78.5 14 -3.6 25.6
19:30 1016 30 846 24.98 25.7 78.2 14 -3.2 26.3
19:35 1016 30 846 24.98 25.7 78.2 13 -4.1 24.7
19:40 1016 30 846 24.98 25.6 78.1 14 -4 24.8
19:45 1016 30 846 24.98 25.7 78.2 14 -3.3 26.1
19:50 1016 30 846 24.98 25.6 78.1 14 -3.9 24.9
19:55 1017 30.03 846 24.98 25.5 77.9 14 -3.4 25.9
20:00 1017 30.03 846 24.98 25.4 77.7 15 -2.8 27
20:05 1017 30.03 846 24.98 25.2 77.4 15 -2.7 27.1
20:10 1017 30.03 846 24.98 25.1 77.1 15 -3 26.6
20:15 1017 30.03 846 24.98 25 77 15 -3.3 26.1
20:20 1017 30.03 846 24.98 24.9 76.9 15 -3 26.6
20:25 1017 30.03 846 24.98 24.8 76.6 17 -1.3 29.6
20:30 1017 30.03 846 24.98 24.7 76.4 18 -0.7 30.8
20:35 1017 30.03 846 24.98 24.6 76.3 20 0.2 32.4
20:40 1017 30.03 846 24.98 24.5 76.1 20 0.5 32.8
20:45 1017 30.03 846 24.98 24.3 75.8 23 2 35.5
20:50 1017 30.03 846 24.98 24.1 75.4 23 2 35.7
20:55 1017 30.03 846 24.98 23.5 74.3 29 4.5 40.1
21:00 1017 30.03 846 24.98 22.6 72.7 34 6.1 42.9
21:05 1017 30.03 846 24.98 21.3 70.3 41 7.5 45.5
21:10 1017 30.03 846 24.98 20.2 68.3 40 6.5 43.7
21:15 1017 30.03 846 24.98 19.6 67.2 43 6.7 44.1
21:20 1017 30.03 846 24.98 19.3 66.7 42 6.1 43
21:25 1017 30.03 846 24.98 19.2 66.5 43 6.3 43.3
21:30 1017 30.03 846 24.98 19.1 66.4 34 3 37.4
21:35 1017 30.03 846 24.98 19.1 66.3 34 3 37.4
21:40 1017 30.03 846 24.98 18.7 65.6 34 2.6 36.7
21:45 1017 30.03 846 24.98 18.5 65.3 33 2.1 35.8
21:50 1017 30.03 846 24.98 18.6 65.4 33 2 35.6
21:55 1017 30.03 847 25.01 18.4 65.1 34 2.6 36.6
22:00 1017 30.03 847 25.01 18 64.4 36 2.7 36.9
22:05 1017 30.03 847 25.01 17.8 64 37 2.9 37.2
22:10 1017 30.03 847 25.01 17.4 63.4 37 2.8 37.1
22:15 1017 30.03 847 25.01 17.3 63.1 37 2.7 36.8
22:20 1018 30.06 847 25.01 17.3 63.1 35 1.8 35.3
22:25 1018 30.06 847 25.01 17.5 63.5 36 2.5 36.5
22:30 1018 30.06 847 25.01 17.1 62.7 37 2.5 36.5
22:35 1018 30.06 847 25.01 16.7 62.1 39 2.7 36.8
22:40 1018 30.06 847 25.01 16.6 61.9 37 2.1 35.7
22:45 1018 30.06 847 25.01 16.7 62.1 38 2.3 36.2
22:50 1018 30.06 847 25.01 16.8 62.3 35 1.4 34.6
22:55 1018 30.06 847 25.01 17.1 62.8 34 1.2 34.1
23:00 1018 30.06 847 25.01 17.3 63.1 33 0.9 33.7
23:05 1018 30.06 847 25.01 17.4 63.3 33 1 33.9
23:10 1018 30.06 847 25.01 17.5 63.4 32 0.6 33
23:15 1018 30.06 847 25.01 17.7 63.9 31 0.7 33.2
23:20 1018 30.06 847 25.01 17.7 63.9 33 1.4 34.5
23:25 1018 30.06 847 25.01 17.5 63.4 35 2.1 35.8
23:30 1018 30.06 847 25.01 17.2 62.9 35 1.7 35.1
23:35 1018 30.06 847 25.01 16.9 62.3 34 1.1 34
23:40 1018 30.06 847 25.01 17 62.6 35 1.7 35.1
23:45 1018 30.06 847 25.01 17.2 62.9 33 0.8 33.4
23:50 1018 30.06 847 25.01 17 62.5 34 1.1 34
23:55 1018 30.06 847 25.01 16.5 61.7 35 1 33.8
24:00 1018 30.06 847 25.01 16.2 61.1 36 1.1 33.9